Time;durP1;ratioP1;P1;durP2;ratioP2;P2;SDS_P1;SDS_P2;PMS_P1;PMS_P2;Temp;Humidity;BMP_temperature;BMP_pressure;BME280_temperature;BME280_humidity;BME280_pressure;Samples;Min_cycle;Max_cycle;Signal;HPM_P1;HPM_P2
2021/08/06 00:02:14;;;;;;;0.33;0.33;;;;;;;15.48;95.72;96564.50;1707078;83;20874;-72
2021/08/06 00:04:39;;;;;;;1.12;0.68;;;;;;;15.46;95.63;96564.60;1713914;82;21405;-80
2021/08/06 00:07:05;;;;;;;0.47;0.35;;;;;;;15.47;95.32;96566.22;1715424;82;20933;-79
2021/08/06 00:09:32;;;;;;;0.55;0.40;;;;;;;15.50;95.34;96562.78;1706991;84;21803;-73
2021/08/06 00:11:58;;;;;;;1.00;0.42;;;;;;;15.49;95.38;96567.45;1706809;82;21065;-73
2021/08/06 00:14:27;;;;;;;1.87;0.95;;;;;;;15.52;95.19;96564.02;1706766;82;20921;-73
2021/08/06 00:16:53;;;;;;;2.22;0.85;;;;;;;15.54;95.14;96565.03;1707117;84;21665;-79
2021/08/06 00:19:20;;;;;;;0.93;0.40;;;;;;;15.56;94.99;96561.98;1706690;84;21002;-79
2021/08/06 00:21:46;;;;;;;0.70;0.40;;;;;;;15.49;94.85;96570.18;1707041;82;21304;-79
2021/08/06 00:24:12;;;;;;;1.32;0.37;;;;;;;15.45;94.78;96567.91;1706747;82;20950;-79
2021/08/06 00:26:38;;;;;;;0.45;0.35;;;;;;;15.47;94.93;96572.47;1706853;82;21001;-79
2021/08/06 00:29:04;;;;;;;0.37;0.30;;;;;;;15.37;95.13;96583.84;1706780;82;20863;-77
2021/08/06 00:31:30;;;;;;;0.90;0.40;;;;;;;15.35;95.06;96582.04;1686951;84;20929;-79
2021/08/06 00:33:56;;;;;;;0.35;0.35;;;;;;;15.33;95.03;96584.90;1706878;84;21316;-79
2021/08/06 00:36:22;;;;;;;0.82;0.33;;;;;;;15.30;95.31;96584.23;1707117;82;20870;-72
2021/08/06 00:38:48;;;;;;;0.30;0.30;;;;;;;15.30;94.93;96591.84;1706981;84;20877;-72
2021/08/06 00:41:14;;;;;;;1.42;0.40;;;;;;;15.21;95.18;96583.80;1707156;84;21399;-72
2021/08/06 00:43:40;;;;;;;0.85;0.40;;;;;;;15.25;94.88;96594.80;1686873;84;20966;-80
2021/08/06 00:46:06;;;;;;;0.60;0.33;;;;;;;15.27;95.13;96593.09;1707096;83;21340;-76
2021/08/06 00:48:32;;;;;;;0.50;0.50;;;;;;;15.29;94.87;96597.62;1706895;83;21623;-79
2021/08/06 00:50:58;;;;;;;0.68;0.65;;;;;;;15.30;94.88;96590.48;1707242;83;20905;-79
2021/08/06 00:53:24;;;;;;;0.93;0.72;;;;;;;15.31;94.66;96598.89;1706914;83;20942;-79
2021/08/06 00:55:50;;;;;;;1.35;0.93;;;;;;;15.31;94.34;96600.25;1706973;83;21017;-79
2021/08/06 00:58:16;;;;;;;1.02;0.60;;;;;;;15.27;94.36;96599.91;1707062;83;20882;-79
2021/08/06 01:00:44;;;;;;;0.57;0.47;;;;;;;15.22;94.44;96599.02;1707027;82;20934;-72
2021/08/06 01:03:25;;;;;;;1.10;0.60;;;;;;;15.21;94.21;96602.89;1707618;83;20962;-80
2021/08/06 01:06:10;;;;;;;1.65;0.40;;;;;;;15.17;94.36;96595.72;1712424;83;21006;-79
2021/08/06 01:08:53;;;;;;;0.50;0.37;;;;;;;15.15;94.27;96595.28;1712087;83;20934;-80
2021/08/06 01:11:22;;;;;;;0.62;0.50;;;;;;;15.17;93.86;96591.63;1711682;83;21138;-73
2021/08/06 01:13:52;;;;;;;0.93;0.53;;;;;;;15.10;94.17;96590.05;1712046;82;20963;-79
2021/08/06 01:16:18;;;;;;;0.40;0.40;;;;;;;15.08;93.98;96593.13;1711445;83;20977;-73
2021/08/06 01:18:49;;;;;;;0.80;0.50;;;;;;;15.11;94.03;96591.63;1710271;83;20997;-74
2021/08/06 01:21:18;;;;;;;0.33;0.30;;;;;;;15.05;94.10;96597.91;1707286;83;21399;-73
2021/08/06 01:23:44;;;;;;;0.53;0.40;;;;;;;15.06;94.09;96595.97;1706979;83;20947;-79
2021/08/06 01:26:19;;;;;;;1.55;0.53;;;;;;;15.05;94.11;96588.94;1706927;84;20942;-79
2021/08/06 01:28:47;;;;;;;1.85;0.88;;;;;;;15.06;94.02;96596.77;1706858;84;20963;-79
2021/08/06 01:31:14;;;;;;;1.47;0.65;;;;;;;15.09;94.17;96602.09;1707058;83;21249;-72
2021/08/06 01:33:42;;;;;;;0.72;0.50;;;;;;;15.10;94.01;96599.02;1706889;84;21388;-79
2021/08/06 01:36:08;;;;;;;1.33;0.53;;;;;;;15.08;93.90;96601.87;1707228;83;21343;-79
2021/08/06 01:38:34;;;;;;;1.42;0.62;;;;;;;15.04;94.08;96607.23;1706911;84;20921;-79
2021/08/06 01:41:23;;;;;;;0.45;0.30;;;;;;;15.06;93.96;96604.16;1706771;82;20981;-79
2021/08/06 01:44:10;;;;;;;1.35;0.60;;;;;;;15.05;94.00;96614.28;1706916;84;20963;-79
2021/08/06 01:46:47;;;;;;;1.20;0.50;;;;;;;15.04;94.09;96605.88;1707140;84;20930;-79
2021/08/06 01:49:23;;;;;;;0.37;0.37;;;;;;;15.07;94.16;96603.02;1706771;83;21374;-73
2021/08/06 01:51:53;;;;;;;0.82;0.40;;;;;;;15.05;93.87;96608.03;1707096;84;21461;-80
2021/08/06 01:54:19;;;;;;;2.72;1.10;;;;;;;15.05;94.16;96609.39;1706727;83;21103;-80
2021/08/06 01:56:45;;;;;;;0.80;0.70;;;;;;;15.07;94.15;96609.27;1706926;83;21366;-73
2021/08/06 01:59:11;;;;;;;0.62;0.42;;;;;;;15.11;94.20;96608.80;1710553;83;20858;-73
2021/08/06 02:01:38;;;;;;;1.90;0.70;;;;;;;15.16;94.11;96608.57;1707058;84;20894;-80
2021/08/06 02:04:05;;;;;;;0.75;0.65;;;;;;;15.18;94.01;96615.05;1708398;83;20915;-80
2021/08/06 02:06:31;;;;;;;1.05;0.50;;;;;;;15.17;93.99;96610.73;1709966;82;21390;-80
2021/08/06 02:08:57;;;;;;;4.08;0.60;;;;;;;15.16;93.94;96609.94;1706946;83;21021;-80
2021/08/06 02:11:23;;;;;;;1.52;0.75;;;;;;;15.17;93.80;96610.73;1707153;82;20918;-80
2021/08/06 02:13:50;;;;;;;2.62;0.40;;;;;;;15.18;93.89;96617.77;1706891;83;21992;-80
2021/08/06 02:16:17;;;;;;;1.55;0.60;;;;;;;15.07;93.54;96618.02;1706941;82;20923;-73
2021/08/06 02:18:49;;;;;;;1.10;0.57;;;;;;;15.00;93.69;96618.59;1706809;84;20967;-73
2021/08/06 02:21:23;;;;;;;1.05;0.45;;;;;;;15.00;93.94;96627.34;1706897;83;20934;-72
2021/08/06 02:23:50;;;;;;;0.98;0.40;;;;;;;15.03;94.01;96626.64;1706774;83;21069;-72
2021/08/06 02:26:16;;;;;;;0.57;0.47;;;;;;;15.05;93.94;96625.76;1707044;84;21225;-79
2021/08/06 02:28:44;;;;;;;0.75;0.40;;;;;;;15.07;94.04;96625.63;1706612;83;21406;-72
2021/08/06 02:31:10;;;;;;;0.30;0.30;;;;;;;15.10;93.88;96623.58;1707052;84;21018;-72
2021/08/06 02:33:36;;;;;;;0.65;0.40;;;;;;;15.08;93.74;96625.06;1706958;84;21078;-79
2021/08/06 02:36:02;;;;;;;0.45;0.30;;;;;;;15.09;93.81;96623.92;1707021;83;20946;-79
2021/08/06 02:38:28;;;;;;;0.40;0.30;;;;;;;15.07;93.86;96626.20;1706858;82;21098;-72
2021/08/06 02:40:54;;;;;;;0.88;0.50;;;;;;;15.09;93.76;96622.56;1686476;84;21516;-79
2021/08/06 02:43:20;;;;;;;0.60;0.40;;;;;;;15.06;93.61;96621.32;1706867;84;21620;-72
2021/08/06 02:45:48;;;;;;;0.80;0.45;;;;;;;15.01;93.63;96623.47;1706742;83;20945;-72
2021/08/06 02:48:15;;;;;;;0.40;0.40;;;;;;;14.97;93.78;96623.38;1707183;82;20962;-73
2021/08/06 02:50:42;;;;;;;0.68;0.40;;;;;;;14.90;94.02;96629.95;1706674;82;21296;-79
2021/08/06 02:53:08;;;;;;;1.37;0.80;;;;;;;14.91;93.96;96633.70;1706894;82;20917;-73
2021/08/06 02:55:34;;;;;;;3.58;0.65;;;;;;;14.91;93.98;96627.45;1706853;84;20919;-73
2021/08/06 02:57:59;;;;;;;2.22;0.62;;;;;;;14.93;94.02;96631.42;1707008;83;20822;-73
2021/08/06 03:00:26;;;;;;;3.60;1.00;;;;;;;14.99;94.03;96629.84;1706890;82;21528;-73
2021/08/06 03:02:51;;;;;;;2.55;0.88;;;;;;;15.02;93.98;96639.48;1706992;82;21106;-79
2021/08/06 03:05:18;;;;;;;5.37;0.95;;;;;;;15.04;93.80;96629.59;1710117;83;20905;-73
2021/08/06 03:07:50;;;;;;;2.50;0.53;;;;;;;15.01;93.68;96637.11;1711586;82;20963;-73
2021/08/06 03:10:18;;;;;;;0.72;0.50;;;;;;;15.01;93.70;96640.63;1711349;82;21359;-79
2021/08/06 03:12:45;;;;;;;1.80;0.85;;;;;;;15.01;93.75;96648.02;1712554;82;21299;-79
2021/08/06 03:15:12;;;;;;;1.15;0.53;;;;;;;15.02;93.73;96672.22;1710276;82;21334;-73
2021/08/06 03:17:40;;;;;;;0.47;0.30;;;;;;;14.90;92.64;96670.30;1709993;83;21489;-79
2021/08/06 03:20:09;;;;;;;0.42;0.40;;;;;;;14.82;92.94;96665.74;1711709;82;20938;-79
2021/08/06 03:22:36;;;;;;;0.47;0.30;;;;;;;14.74;92.59;96664.48;1706446;84;20970;-79
2021/08/06 03:25:02;;;;;;;1.25;0.40;;;;;;;14.64;93.02;96664.36;1707003;83;20962;-79
2021/08/06 03:27:28;;;;;;;2.15;0.40;;;;;;;14.62;93.32;96659.25;1706846;83;21315;-79
2021/08/06 03:29:53;;;;;;;0.72;0.50;;;;;;;14.59;93.60;96661.84;1706926;82;21014;-72
2021/08/06 03:32:19;;;;;;;0.98;0.62;;;;;;;14.54;93.75;96656.05;1706913;84;21552;-73
2021/08/06 03:34:45;;;;;;;3.08;0.60;;;;;;;14.55;93.71;96662.30;1706870;82;20885;-72
2021/08/06 03:37:11;;;;;;;1.27;0.68;;;;;;;14.53;93.66;96665.94;1707112;83;20894;-79
2021/08/06 03:39:37;;;;;;;0.75;0.53;;;;;;;14.51;93.59;96660.80;1706798;82;21334;-79
2021/08/06 03:42:03;;;;;;;0.85;0.55;;;;;;;14.43;93.69;96665.75;1707060;84;20894;-72
2021/08/06 03:44:29;;;;;;;1.30;0.78;;;;;;;14.48;93.46;96679.20;1707035;84;21077;-72
2021/08/06 03:46:55;;;;;;;3.02;1.20;;;;;;;14.52;93.52;96679.31;1707095;84;20917;-72
2021/08/06 03:49:21;;;;;;;1.75;1.20;;;;;;;14.51;93.53;96685.33;1706953;84;21646;-72
2021/08/06 03:51:47;;;;;;;1.95;1.20;;;;;;;14.55;93.40;96681.38;1707080;84;21221;-79
2021/08/06 03:54:13;;;;;;;2.10;1.20;;;;;;;14.50;93.29;96681.02;1706757;82;21527;-79
2021/08/06 03:56:39;;;;;;;1.50;1.00;;;;;;;14.47;93.29;96688.52;1707052;84;20870;-73
2021/08/06 03:59:04;;;;;;;1.77;1.15;;;;;;;14.45;93.13;96691.33;1706714;84;20890;-73
2021/08/06 04:01:30;;;;;;;1.67;1.00;;;;;;;14.36;92.98;96697.66;1707059;83;20934;-80
2021/08/06 04:03:56;;;;;;;1.60;1.10;;;;;;;14.29;93.03;96697.41;1706891;83;21302;-73
2021/08/06 04:06:22;;;;;;;1.75;1.25;;;;;;;14.26;93.05;96705.43;1706744;83;21004;-73
2021/08/06 04:08:48;;;;;;;2.30;1.00;;;;;;;14.22;93.07;96704.52;1704498;83;20886;-72
2021/08/06 04:11:14;;;;;;;2.80;2.10;;;;;;;14.20;93.05;96701.34;1699197;84;20867;-80
2021/08/06 04:13:40;;;;;;;2.65;2.20;;;;;;;14.20;93.17;96704.86;1699101;82;21616;-72
2021/08/06 04:16:06;;;;;;;4.92;1.80;;;;;;;14.14;93.20;96708.91;1699102;84;21337;-79
2021/08/06 04:18:32;;;;;;;2.27;1.25;;;;;;;14.11;93.24;96710.95;1698970;84;21651;-80
2021/08/06 04:20:59;;;;;;;3.77;1.72;;;;;;;14.08;93.26;96714.33;1699156;84;20847;-79
2021/08/06 04:23:26;;;;;;;1.95;1.30;;;;;;;14.10;93.14;96717.53;1699139;84;21348;-73
2021/08/06 04:25:52;;;;;;;3.47;1.80;;;;;;;14.06;93.46;96722.84;1699168;84;21018;-73
2021/08/06 04:28:18;;;;;;;7.03;1.90;;;;;;;14.07;93.32;96720.91;1699134;84;21182;-79
2021/08/06 04:30:44;;;;;;;3.85;1.40;;;;;;;14.04;93.42;96725.10;1698962;83;20854;-79
2021/08/06 04:33:10;;;;;;;4.20;2.52;;;;;;;14.07;93.61;96721.70;1699163;84;21403;-73
2021/08/06 04:35:36;;;;;;;1.75;1.45;;;;;;;14.03;93.48;96726.23;1699255;83;20942;-80
2021/08/06 04:38:02;;;;;;;3.22;1.90;;;;;;;14.04;93.72;96717.50;1699203;84;20867;-79
2021/08/06 04:40:28;;;;;;;3.15;2.40;;;;;;;14.00;93.46;96722.80;1699135;84;21947;-72
2021/08/06 04:42:54;;;;;;;3.77;2.12;;;;;;;14.01;93.79;96724.38;1699298;84;20910;-72
2021/08/06 04:45:20;;;;;;;2.35;1.98;;;;;;;13.95;93.86;96728.46;1699145;84;20958;-79
2021/08/06 04:47:48;;;;;;;2.02;1.72;;;;;;;14.00;94.03;96729.61;1699269;84;20915;-74
2021/08/06 04:50:16;;;;;;;2.55;1.45;;;;;;;14.00;94.07;96727.45;1702900;83;20946;-78
2021/08/06 04:52:42;;;;;;;2.92;1.62;;;;;;;13.96;94.02;96725.17;1699135;84;21402;-73
2021/08/06 04:55:08;;;;;;;2.12;1.52;;;;;;;13.95;94.27;96731.19;1699219;84;20854;-72
2021/08/06 04:57:35;;;;;;;2.05;1.20;;;;;;;13.95;94.11;96731.75;1699309;84;20910;-78
2021/08/06 05:00:01;;;;;;;1.98;1.32;;;;;;;14.00;94.39;96735.62;1698976;84;20959;-73
2021/08/06 05:02:26;;;;;;;1.25;0.98;;;;;;;13.98;94.40;96735.16;1699175;84;20859;-79
2021/08/06 05:04:52;;;;;;;1.52;1.27;;;;;;;14.00;94.45;96738.34;1702065;83;21208;-72
2021/08/06 05:07:18;;;;;;;2.35;1.35;;;;;;;13.99;94.31;96736.19;1708006;82;21029;-79
2021/08/06 05:09:45;;;;;;;1.57;1.47;;;;;;;14.02;94.42;96745.07;1706984;84;20938;-72
2021/08/06 05:12:11;;;;;;;1.60;1.40;;;;;;;14.09;94.46;96745.87;1686996;84;20982;-79
2021/08/06 05:14:37;;;;;;;2.08;0.95;;;;;;;14.06;94.30;96752.00;1707068;84;20914;-73
2021/08/06 05:17:03;;;;;;;1.87;1.20;;;;;;;14.08;94.35;96755.18;1707046;83;21313;-72
2021/08/06 05:19:29;;;;;;;3.77;1.42;;;;;;;14.12;94.26;96749.31;1706994;83;20933;-73
2021/08/06 05:21:55;;;;;;;1.87;0.60;;;;;;;14.13;94.25;96753.63;1707163;83;20847;-79
2021/08/06 05:24:21;;;;;;;1.22;0.68;;;;;;;14.12;94.20;96753.40;1707233;84;20897;-73
2021/08/06 05:26:47;;;;;;;3.08;0.82;;;;;;;14.16;94.13;96757.61;1706898;83;21560;-73
2021/08/06 05:29:13;;;;;;;0.88;0.70;;;;;;;14.17;94.11;96760.56;1706873;82;21033;-73
2021/08/06 05:31:39;;;;;;;1.15;0.80;;;;;;;14.18;94.06;96754.77;1706702;84;20893;-73
2021/08/06 05:34:05;;;;;;;1.50;0.88;;;;;;;14.20;94.02;96758.55;1706970;84;20850;-73
2021/08/06 05:36:31;;;;;;;2.00;0.90;;;;;;;14.20;93.88;96770.24;1706790;82;20970;-80
2021/08/06 05:38:56;;;;;;;1.75;0.80;;;;;;;14.22;93.91;96762.53;1706954;83;20981;-80
2021/08/06 05:41:22;;;;;;;3.80;1.20;;;;;;;14.24;93.81;96770.36;1706770;84;21154;-76
2021/08/06 05:43:48;;;;;;;1.95;1.12;;;;;;;14.26;93.79;96769.45;1709950;83;20842;-79
2021/08/06 05:46:14;;;;;;;1.00;0.88;;;;;;;14.29;93.59;96773.69;1706875;82;21627;-79
2021/08/06 05:48:40;;;;;;;2.90;0.80;;;;;;;14.31;93.63;96771.98;1706957;84;20850;-73
2021/08/06 05:51:06;;;;;;;1.92;0.80;;;;;;;14.32;93.67;96778.46;1706916;82;20811;-80
2021/08/06 05:53:32;;;;;;;1.47;1.05;;;;;;;14.34;93.55;96779.48;1706945;84;21259;-73
2021/08/06 05:55:59;;;;;;;3.62;1.25;;;;;;;14.38;93.66;96781.80;1706970;82;21109;-72
2021/08/06 05:58:27;;;;;;;1.60;1.00;;;;;;;14.38;93.93;96787.24;1706916;83;20926;-79
2021/08/06 06:00:52;;;;;;;1.47;0.80;;;;;;;14.42;93.78;96783.27;1706683;84;21379;-73
2021/08/06 06:03:18;;;;;;;1.32;1.02;;;;;;;14.40;93.68;96788.49;1707268;82;20949;-79
2021/08/06 06:05:45;;;;;;;1.70;0.78;;;;;;;14.42;93.72;96789.52;1709232;83;21302;-73
2021/08/06 06:08:11;;;;;;;1.67;0.95;;;;;;;14.42;93.60;96794.97;1711404;83;21366;-79
2021/08/06 06:10:37;;;;;;;2.60;1.00;;;;;;;14.46;93.72;96791.85;1706821;83;20838;-73
2021/08/06 06:13:03;;;;;;;2.25;1.72;;;;;;;14.49;93.81;96801.28;1706985;84;20858;-74
2021/08/06 06:15:29;;;;;;;2.17;0.98;;;;;;;14.49;93.61;96804.00;1707063;83;20977;-73
2021/08/06 06:17:55;;;;;;;2.52;1.10;;;;;;;14.40;93.78;96805.41;1707027;82;21316;-80
2021/08/06 06:20:21;;;;;;;2.15;1.05;;;;;;;14.47;93.89;96805.70;1706800;84;20940;-80
2021/08/06 06:22:47;;;;;;;1.32;1.10;;;;;;;14.57;94.04;96809.95;1706839;84;20945;-79
2021/08/06 06:25:13;;;;;;;1.10;0.90;;;;;;;14.64;93.85;96809.64;1707072;83;20957;-74
2021/08/06 06:27:52;;;;;;;1.12;0.90;;;;;;;14.69;93.69;96808.62;1707073;83;21001;-81
2021/08/06 06:30:21;;;;;;;2.15;1.72;;;;;;;14.68;93.54;96819.30;1684487;84;21193;-79
2021/08/06 06:32:47;;;;;;;2.58;1.80;;;;;;;14.73;93.43;96815.02;1706490;84;21327;-79
2021/08/06 06:35:13;;;;;;;1.62;1.00;;;;;;;14.65;93.23;96819.98;1706966;82;20882;-80
2021/08/06 06:37:39;;;;;;;1.22;1.10;;;;;;;14.61;93.26;96824.48;1707060;83;20874;-79
2021/08/06 06:40:07;;;;;;;0.72;0.60;;;;;;;14.56;93.10;96826.08;1707434;84;21560;-79
2021/08/06 06:42:32;;;;;;;1.12;0.95;;;;;;;14.59;92.98;96822.09;1706964;84;21156;-80
2021/08/06 06:44:58;;;;;;;1.92;1.22;;;;;;;14.57;93.04;96818.13;1706974;84;20925;-73
2021/08/06 06:47:24;;;;;;;1.50;1.40;;;;;;;14.61;92.87;96827.21;1707069;84;20941;-80
2021/08/06 06:49:50;;;;;;;2.02;1.17;;;;;;;14.65;92.84;96830.87;1706992;83;20922;-73
2021/08/06 06:52:16;;;;;;;2.20;1.60;;;;;;;14.67;92.57;96827.25;1706695;83;21603;-74
2021/08/06 06:54:42;;;;;;;2.20;1.52;;;;;;;14.69;92.29;96830.43;1707070;83;21000;-81
2021/08/06 06:57:08;;;;;;;2.55;1.02;;;;;;;14.67;91.76;96821.23;1706908;84;21797;-81
2021/08/06 06:59:34;;;;;;;2.30;1.55;;;;;;;14.62;91.36;96830.99;1706711;84;20878;-71
2021/08/06 07:02:01;;;;;;;7.03;5.90;;;;;;;14.59;91.63;96830.84;1706570;82;20863;-79
2021/08/06 07:04:28;;;;;;;2.83;2.55;;;;;;;14.60;91.74;96834.59;1707131;83;20926;-80
2021/08/06 07:06:54;;;;;;;3.17;2.20;;;;;;;14.64;91.65;96836.11;1700462;82;21316;-73
2021/08/06 07:09:20;;;;;;;4.25;2.33;;;;;;;14.67;91.77;96841.67;1698879;84;21564;-73
2021/08/06 07:11:46;;;;;;;3.65;2.52;;;;;;;14.72;91.59;96842.05;1698654;83;20858;-79
2021/08/06 07:14:12;;;;;;;6.83;2.90;;;;;;;14.76;91.51;96847.62;1699091;84;20858;-80
2021/08/06 07:16:38;;;;;;;4.72;2.80;;;;;;;14.73;91.57;96846.37;1698979;84;20898;-79
2021/08/06 07:19:04;;;;;;;4.20;2.67;;;;;;;14.78;91.50;96848.07;1699020;84;21158;-79
2021/08/06 07:21:30;;;;;;;3.75;2.08;;;;;;;14.82;91.58;96853.10;1698892;82;20929;-73
2021/08/06 07:23:56;;;;;;;5.03;2.02;;;;;;;14.81;90.48;96856.97;1698994;84;20921;-73
2021/08/06 07:26:22;;;;;;;4.92;2.47;;;;;;;14.94;91.39;96863.48;1699115;84;20823;-80
2021/08/06 07:28:47;;;;;;;2.50;1.65;;;;;;;15.06;90.83;96860.02;1699005;82;21473;-80
2021/08/06 07:31:13;;;;;;;2.83;2.00;;;;;;;15.00;91.10;96859.19;1699114;83;21661;-73
2021/08/06 07:33:39;;;;;;;3.22;2.00;;;;;;;15.06;90.95;96867.40;1698776;84;20874;-80
2021/08/06 07:36:05;;;;;;;4.15;2.60;;;;;;;15.13;91.22;96867.09;1699118;84;20835;-80
2021/08/06 07:38:31;;;;;;;4.55;2.80;;;;;;;15.14;90.85;96865.95;1699067;83;20851;-74
2021/08/06 07:40:57;;;;;;;2.67;1.52;;;;;;;15.15;91.26;96871.63;1699260;84;21568;-73
2021/08/06 07:43:23;;;;;;;3.27;1.80;;;;;;;15.12;91.09;96868.77;1699143;84;21153;-80
2021/08/06 07:45:49;;;;;;;2.08;1.50;;;;;;;15.19;90.81;96876.63;1699262;83;20855;-80
2021/08/06 07:48:15;;;;;;;3.08;1.80;;;;;;;15.19;90.75;96873.91;1699184;84;20926;-74
2021/08/06 07:50:41;;;;;;;3.80;1.95;;;;;;;15.12;91.00;96875.02;1699254;84;20931;-73
2021/08/06 07:53:07;;;;;;;2.42;2.05;;;;;;;15.09;91.21;96876.27;1698975;84;20926;-80
2021/08/06 07:55:33;;;;;;;2.35;2.15;;;;;;;15.10;91.33;96880.02;1699250;84;21734;-81
2021/08/06 07:58:00;;;;;;;6.20;2.90;;;;;;;15.13;91.00;96874.48;1698951;82;20958;-74
2021/08/06 08:00:26;;;;;;;2.77;2.30;;;;;;;15.13;91.01;96873.91;1699386;83;20878;-81
2021/08/06 08:02:51;;;;;;;4.33;2.40;;;;;;;15.09;90.51;96871.61;1699100;84;20811;-81
2021/08/06 08:05:20;;;;;;;5.05;2.58;;;;;;;15.07;90.46;96877.97;1699390;83;20966;-74
2021/08/06 08:07:45;;;;;;;3.50;2.67;;;;;;;15.12;89.50;96886.50;1701680;83;21312;-74
2021/08/06 08:10:11;;;;;;;9.20;3.83;;;;;;;15.09;89.69;96895.36;1713503;82;20994;-74
2021/08/06 08:12:37;;;;;;;6.92;3.77;;;;;;;15.14;89.61;96894.59;1707455;82;20958;-81
2021/08/06 08:15:05;;;;;;;3.98;3.33;;;;;;;15.19;89.82;96888.11;1687082;84;21476;-74
2021/08/06 08:17:31;;;;;;;6.03;3.85;;;;;;;15.21;89.78;96894.85;1706860;84;21418;-81
2021/08/06 08:19:57;;;;;;;6.12;3.60;;;;;;;15.28;89.56;96897.58;1707083;84;21885;-75
2021/08/06 08:22:23;;;;;;;4.65;3.30;;;;;;;15.34;89.40;96894.88;1706617;84;20915;-74
2021/08/06 08:24:49;;;;;;;4.20;2.65;;;;;;;15.42;88.85;96892.62;1707246;84;20932;-81
2021/08/06 08:27:15;;;;;;;3.98;2.87;;;;;;;15.51;88.52;96891.95;1706970;82;20850;-81
2021/08/06 08:29:41;;;;;;;4.87;3.65;;;;;;;15.51;88.52;96894.11;1707126;82;20970;-79
2021/08/06 08:32:07;;;;;;;7.90;5.50;;;;;;;15.61;88.54;96892.11;1706977;83;21106;-72
2021/08/06 08:34:33;;;;;;;3.33;2.72;;;;;;;15.74;88.44;96895.89;1707025;84;20957;-72
2021/08/06 08:36:59;;;;;;;9.53;6.05;;;;;;;15.82;88.45;96896.92;1706878;83;20969;-79
2021/08/06 08:39:25;;;;;;;3.47;2.72;;;;;;;15.89;87.64;96893.03;1707172;82;20949;-73
2021/08/06 08:41:51;;;;;;;4.28;3.40;;;;;;;16.05;86.82;96897.25;1706929;84;20850;-79
2021/08/06 08:44:17;;;;;;;4.58;3.75;;;;;;;16.23;86.40;96903.27;1686790;84;21205;-73
2021/08/06 08:46:43;;;;;;;4.00;2.80;;;;;;;16.33;86.61;96905.56;1706857;83;21522;-73
2021/08/06 08:49:09;;;;;;;2.90;2.52;;;;;;;16.50;85.94;96903.94;1686731;84;20929;-73
2021/08/06 08:51:35;;;;;;;3.87;2.60;;;;;;;16.63;85.02;96904.70;1707056;83;20854;-73
2021/08/06 08:54:01;;;;;;;3.12;2.67;;;;;;;16.62;84.02;96911.31;1706712;82;20978;-80
2021/08/06 08:56:30;;;;;;;3.60;2.25;;;;;;;16.57;84.18;96921.91;1707099;82;21221;-73
2021/08/06 08:58:56;;;;;;;4.40;3.72;;;;;;;16.55;82.14;96917.93;1706880;82;20974;-73
2021/08/06 09:01:23;;;;;;;4.05;3.27;;;;;;;16.34;82.52;96918.09;1706950;82;21382;-75
2021/08/06 09:03:49;;;;;;;4.37;3.58;;;;;;;16.33;82.60;96923.33;1686547;84;20989;-80
2021/08/06 09:06:16;;;;;;;5.78;4.40;;;;;;;16.35;82.44;96921.84;1709077;83;20954;-80
2021/08/06 09:08:43;;;;;;;4.12;3.50;;;;;;;16.42;81.59;96918.53;1714985;83;21185;-73
2021/08/06 09:11:32;;;;;;;3.98;3.50;;;;;;;16.50;82.37;96916.81;1689029;83;20946;-79
2021/08/06 09:14:25;;;;;;;6.78;4.25;;;;;;;16.62;82.70;96922.25;1707394;82;20982;-73
2021/08/06 09:16:59;;;;;;;3.67;3.15;;;;;;;16.62;81.96;96918.14;1706758;82;20978;-79
2021/08/06 09:19:27;;;;;;;3.70;3.17;;;;;;;16.55;82.43;96916.56;1707081;84;20903;-79
2021/08/06 09:22:20;;;;;;;4.40;3.02;;;;;;;16.69;82.78;96925.23;1706895;84;22051;-80
2021/08/06 09:25:10;;;;;;;6.05;5.55;;;;;;;18.71;77.56;96922.05;1706884;82;20915;-74
2021/08/06 09:27:47;;;;;;;2.90;2.37;;;;;;;18.63;77.42;96926.34;1706928;84;21010;-74
2021/08/06 09:30:36;;;;;;;3.55;3.10;;;;;;;18.57;74.61;96920.36;1686940;84;20986;-74
2021/08/06 09:33:02;;;;;;;4.00;2.50;;;;;;;19.06;76.21;96920.66;1706898;83;21104;-81
2021/08/06 09:35:31;;;;;;;44.83;27.27;;;;;;;18.77;75.16;96915.13;1706698;83;22324;-80
2021/08/06 09:37:57;;;;;;;6.60;4.75;;;;;;;18.56;74.93;96915.45;1706863;82;21005;-74
2021/08/06 09:40:25;;;;;;;5.03;3.90;;;;;;;18.17;74.44;96926.88;1707012;84;20997;-80
2021/08/06 09:43:02;;;;;;;4.28;3.58;;;;;;;17.71;74.35;96927.11;1706868;84;20963;-74
2021/08/06 09:45:35;;;;;;;4.10;3.25;;;;;;;17.52;75.76;96927.77;1706956;83;21343;-79
2021/08/06 09:48:01;;;;;;;3.15;2.72;;;;;;;17.44;76.47;96934.20;1706758;83;21399;-74
2021/08/06 09:50:39;;;;;;;3.75;3.35;;;;;;;17.22;76.11;96934.17;1707068;83;21009;-74
2021/08/06 09:53:05;;;;;;;3.50;2.92;;;;;;;17.19;76.60;96938.41;1706958;83;20938;-80
2021/08/06 09:55:48;;;;;;;4.97;3.30;;;;;;;17.02;76.63;96932.44;1707173;84;21335;-80
2021/08/06 09:58:22;;;;;;;13.75;12.35;;;;;;;16.89;77.10;96944.77;1706708;83;20990;-74
2021/08/06 10:00:53;;;;;;;5.35;3.90;;;;;;;16.90;76.93;96942.83;1706902;84;21034;-79
2021/08/06 10:03:33;;;;;;;4.25;3.05;;;;;;;16.89;77.43;96943.98;1706634;82;20981;-73
2021/08/06 10:06:10;;;;;;;4.67;2.62;;;;;;;17.86;75.42;96939.20;1706989;83;20994;-73
2021/08/06 10:08:36;;;;;;;4.95;3.58;;;;;;;20.07;71.51;96942.54;1714887;82;20914;-79
2021/08/06 10:11:02;;;;;;;2.40;2.20;;;;;;;22.14;65.79;96938.58;1712426;83;20950;-79
2021/08/06 10:13:28;;;;;;;2.70;1.90;;;;;;;23.26;61.73;96932.59;1708943;83;21927;-74
2021/08/06 10:15:55;;;;;;;2.55;2.17;;;;;;;22.07;60.03;96934.37;1706797;84;20910;-74
2021/08/06 10:18:21;;;;;;;7.45;2.65;;;;;;;21.91;61.75;96936.55;1686499;84;21399;-74
2021/08/06 10:20:48;;;;;;;7.53;3.52;;;;;;;21.85;62.17;96930.58;1707085;83;20913;-79
2021/08/06 10:23:14;;;;;;;3.52;2.45;;;;;;;22.06;62.14;96925.86;1706810;83;20919;-80
2021/08/06 10:25:40;;;;;;;5.33;2.40;;;;;;;21.84;61.70;96930.97;1706976;82;20886;-74
2021/08/06 10:28:06;;;;;;;2.62;2.17;;;;;;;22.21;60.97;96927.57;1706762;84;21508;-74
2021/08/06 10:30:37;;;;;;;2.40;2.05;;;;;;;21.43;61.63;96928.17;1706830;84;20950;-75
2021/08/06 10:33:18;;;;;;;2.40;1.72;;;;;;;20.69;61.17;96941.78;1706827;84;21380;-81
2021/08/06 10:35:56;;;;;;;4.80;2.42;;;;;;;20.12;61.70;96941.66;1706562;83;21014;-73
2021/08/06 10:38:43;;;;;;;3.40;2.00;;;;;;;19.45;63.90;96944.75;1706758;83;21773;-75
2021/08/06 10:41:23;;;;;;;2.15;1.67;;;;;;;18.99;65.30;96945.79;1706886;83;21496;-80
2021/08/06 10:44:00;;;;;;;3.65;2.15;;;;;;;18.59;66.80;96953.70;1704920;83;21355;-79
2021/08/06 10:46:57;;;;;;;4.22;3.15;;;;;;;18.25;67.38;96948.41;1689611;84;21069;-79
2021/08/06 10:49:22;;;;;;;3.42;2.30;;;;;;;17.91;68.52;96957.55;1706905;83;21010;-73
2021/08/06 10:51:48;;;;;;;6.20;4.95;;;;;;;17.76;69.94;96964.61;1706924;84;21187;-79
2021/08/06 10:54:29;;;;;;;6.37;2.70;;;;;;;17.58;70.76;96971.53;1706766;83;20878;-77
2021/08/06 10:57:24;;;;;;;2.55;2.22;;;;;;;17.54;71.21;96972.59;1706665;84;20918;-79
2021/08/06 10:59:50;;;;;;;5.78;3.42;;;;;;;17.41;71.60;96971.84;1705507;83;21014;-79
2021/08/06 11:02:38;;;;;;;6.80;3.45;;;;;;;17.37;72.13;96972.33;1706918;83;21595;-73
2021/08/06 11:05:33;;;;;;;5.75;3.72;;;;;;;17.29;72.94;96977.38;1706891;83;21053;-74
2021/08/06 11:08:01;;;;;;;4.95;4.40;;;;;;;17.17;73.09;96980.94;1701238;82;21450;-79
2021/08/06 11:10:50;;;;;;;4.70;4.30;;;;;;;17.01;73.74;96997.32;1699266;83;20923;-74
2021/08/06 11:13:35;;;;;;;;;;;;;;;16.80;74.40;96990.62;1701227;84;20926;-73
2021/08/06 11:16:09;;;;;;;5.15;4.00;;;;;;;16.64;75.59;96997.91;1699111;83;20481;-73
2021/08/06 11:18:44;;;;;;;4.20;3.33;;;;;;;16.42;76.32;97006.02;1698442;84;21151;-73
2021/08/06 11:21:10;;;;;;;4.53;3.00;;;;;;;16.33;77.49;96999.88;1699162;84;21007;-79
2021/08/06 11:23:36;;;;;;;5.03;3.42;;;;;;;16.38;77.55;97000.99;1699036;82;20919;-80
2021/08/06 11:26:09;;;;;;;5.47;2.60;;;;;;;16.46;77.99;97003.39;1699146;84;20828;-73
2021/08/06 11:28:35;;;;;;;3.95;2.50;;;;;;;16.61;78.24;96995.86;1698975;82;20918;-73
2021/08/06 11:31:01;;;;;;;4.62;2.70;;;;;;;16.62;79.10;96998.25;1699223;84;21257;-79
2021/08/06 11:33:27;;;;;;;4.35;3.00;;;;;;;16.66;78.49;96999.72;1698918;83;21429;-79
2021/08/06 11:35:53;;;;;;;4.25;3.20;;;;;;;16.70;78.32;96990.30;1699038;84;20891;-73
2021/08/06 11:38:22;;;;;;;4.22;3.83;;;;;;;16.64;78.35;96986.39;1699049;84;20863;-74
2021/08/06 11:40:50;;;;;;;4.47;2.52;;;;;;;16.75;78.44;96982.67;1699200;83;20970;-73